»·PEaware :: N733XE KBFL-KMHV

N733XE :: KBFL-KMHV

FLIGHT INFORMATION

Flight Status: Arrived
Operator: Privately registered:
United States
More flights under this callsign
Pilot: John A. (34961)
Aircraft: CESSNA 172 SKYHAWK
(C172)
More flights by this aircraft type
Origin: KBFL Meadows
United States
Destination: KMHV Mojave
United States
More flights between these airports :: More routes between these airports
Route:
File this flight plan on PilotEdge
Remarks:
Altitude:
(Current/Filed)
7,500ft
Speed:
(Current/Filed)
110kts
Departed: 21-Feb-22 08:47 PM
Arrived: 21-Feb-22 09:14 PM
Distance/Time
Traveled:
50nm/0:27
Distance/Time
To Go:
Arrived

Flight Plot

Page will automatically refresh every two minutes.


Map Options




Map Legend


Flown Route
Filed Route
Departure Airport
Arrival Airport
Navaid (VOR, NDB)
Fix

Horizontal Profiles

Position Reports

Time Latitude Longitude Heading Altitude Ground
Speed
21-Feb-22 20:13 35.437471 -119.055205 268 501ft 0kts
21-Feb-22 20:14 35.437471 -119.055205 268 501ft 0kts
21-Feb-22 20:15 35.437471 -119.055205 268 501ft 0kts
21-Feb-22 20:16 35.437471 -119.055205 268 501ft 0kts
21-Feb-22 20:17 35.437471 -119.055205 268 501ft 0kts
21-Feb-22 20:18 35.437471 -119.055205 268 501ft 0kts
21-Feb-22 20:19 35.437471 -119.055205 268 501ft 0kts
21-Feb-22 20:20 35.437471 -119.055211 265 501ft 0kts
21-Feb-22 20:21 35.437471 -119.055211 265 501ft 0kts
21-Feb-22 20:22 35.437471 -119.055211 265 501ft 0kts
21-Feb-22 20:23 35.437471 -119.055211 265 501ft 0kts
21-Feb-22 20:24 35.437471 -119.055211 265 501ft 0kts
21-Feb-22 20:25 35.437471 -119.055211 265 501ft 0kts
21-Feb-22 20:26 35.437471 -119.055211 265 501ft 0kts
21-Feb-22 20:27 35.437471 -119.055211 265 501ft 0kts
21-Feb-22 20:28 35.437471 -119.055211 266 501ft 0kts
21-Feb-22 20:29 35.437471 -119.055211 266 501ft 0kts
21-Feb-22 20:30 35.437471 -119.055211 266 501ft 0kts
21-Feb-22 20:31 35.437471 -119.055211 266 501ft 0kts
21-Feb-22 20:32 35.437471 -119.055211 266 501ft 0kts
21-Feb-22 20:33 35.436062 -119.055253 194 496ft 2kts
21-Feb-22 20:34 35.435708 -119.055349 322 495ft 3kts
21-Feb-22 20:35 35.435672 -119.055412 215 494ft 0kts
21-Feb-22 20:36 35.435672 -119.055412 215 494ft 0kts
21-Feb-22 20:37 35.435672 -119.055412 215 494ft 0kts
21-Feb-22 20:38 35.435672 -119.055412 215 494ft 0kts
21-Feb-22 20:39 35.435672 -119.055412 215 494ft 0kts
21-Feb-22 20:40 35.435672 -119.055412 215 494ft 0kts
21-Feb-22 20:41 35.433201 -119.053144 134 493ft 19kts
21-Feb-22 20:42 35.428485 -119.047438 133 488ft 25kts
21-Feb-22 20:43 35.425977 -119.044839 224 480ft 0kts
21-Feb-22 20:44 35.425977 -119.044839 227 480ft 0kts
21-Feb-22 20:45 35.425396 -119.045654 242 476ft 13kts
21-Feb-22 20:46 35.435698 -119.059549 314 1175ft 69kts
21-Feb-22 20:47 35.452140 -119.061345 35 2204ft 72kts
21-Feb-22 20:48 35.457748 -119.039399 111 3165ft 88kts
21-Feb-22 20:49 35.443541 -119.012533 115 4024ft 98kts
21-Feb-22 20:50 35.428939 -118.983541 108 4847ft 105kts
21-Feb-22 20:51 35.416598 -118.951047 105 5708ft 108kts
21-Feb-22 20:52 35.402357 -118.917506 105 6508ft 112kts
21-Feb-22 20:53 35.385460 -118.883250 117 7231ft 121kts
21-Feb-22 20:54 35.365342 -118.845240 106 7474ft 154kts
21-Feb-22 20:55 35.346980 -118.794557 107 7324ft 163kts
21-Feb-22 20:56 35.327448 -118.744931 114 7396ft 163kts
21-Feb-22 20:57 35.303201 -118.697421 118 7383ft 166kts
21-Feb-22 20:58 35.281266 -118.648005 112 7369ft 164kts
21-Feb-22 20:59 35.259162 -118.599077 116 7394ft 165kts
21-Feb-22 21:00 35.236448 -118.550155 119 7434ft 165kts
21-Feb-22 21:01 35.213783 -118.501369 126 7520ft 163kts
21-Feb-22 21:02 35.190249 -118.454830 116 7486ft 162kts
21-Feb-22 21:03 35.172038 -118.403418 121 7553ft 163kts
21-Feb-22 21:04 35.150468 -118.353743 121 7533ft 163kts
21-Feb-22 21:05 35.126514 -118.306623 129 7054ft 157kts
21-Feb-22 21:06 35.104397 -118.261052 120 5857ft 154kts
21-Feb-22 21:07 35.084859 -118.219392 126 4499ft 133kts
21-Feb-22 21:08 35.069796 -118.180072 114 3754ft 117kts
21-Feb-22 21:09 35.066865 -118.144217 73 3782ft 104kts
21-Feb-22 21:10 35.066087 -118.111740 154 3711ft 83kts
21-Feb-22 21:11 35.059084 -118.123489 268 3283ft 52kts
21-Feb-22 21:12 35.059202 -118.141611 274 2765ft 43kts
21-Feb-22 21:13 35.059204 -118.153452 270 2758ft 29kts
21-Feb-22 21:14 35.058105 -118.157800 156 2765ft 0kts
21-Feb-22 21:15 35.057629 -118.157149 96 2763ft 14kts
21-Feb-22 21:16 35.057202 -118.155674 2 2759ft 0kts
21-Feb-22 21:17 35.057202 -118.155674 2 2759ft 0kts
21-Feb-22 21:18 35.057202 -118.155674 2 2759ft 0kts
21-Feb-22 21:19 35.057202 -118.155674 2 2759ft 0kts
21-Feb-22 21:20 35.057202 -118.155674 2 2759ft 0kts
21-Feb-22 21:21 35.057202 -118.155674 2 2759ft 0kts
21-Feb-22 21:22 35.057202 -118.155674 2 2759ft 0kts
21-Feb-22 21:23 35.057202 -118.155674 2 2759ft 0kts

Navigation Log

Ident Type
Flight plan parsing failed, navigation log unavailable